createdAt,value
2022-10-16T00:02:26.830Z,12.09
2022-10-16T00:04:55.673Z,11.98
2022-10-16T00:07:23.748Z,11.89
2022-10-16T00:09:52.145Z,11.82
2022-10-16T00:12:20.133Z,11.82
2022-10-16T00:14:47.906Z,11.94
2022-10-16T00:17:17.341Z,11.79
2022-10-16T00:19:45.137Z,11.78
2022-10-16T00:22:13.221Z,11.80
2022-10-16T00:24:40.925Z,11.84
2022-10-16T00:27:08.880Z,11.83
2022-10-16T00:29:36.597Z,11.77
2022-10-16T00:32:04.854Z,11.84
2022-10-16T00:34:34.200Z,12.00
2022-10-16T00:37:02.093Z,11.94
2022-10-16T00:39:29.788Z,11.81
2022-10-16T00:41:57.861Z,11.79
2022-10-16T00:44:47.477Z,11.74
2022-10-16T00:47:20.601Z,11.90
2022-10-16T00:49:53.726Z,11.85
2022-10-16T00:52:22.006Z,11.72
2022-10-16T00:54:51.714Z,11.65
2022-10-16T00:57:20.001Z,11.80
2022-10-16T00:59:48.018Z,11.78
2022-10-16T01:02:17.910Z,11.77
2022-10-16T01:04:48.029Z,11.78
2022-10-16T01:07:32.298Z,11.80
2022-10-16T01:10:09.697Z,11.77
2022-10-16T01:12:47.071Z,11.63
2022-10-16T01:15:25.651Z,11.73
2022-10-16T01:17:59.785Z,11.51
2022-10-16T01:20:31.466Z,11.57
2022-10-16T01:23:06.101Z,11.53
2022-10-16T01:25:50.207Z,11.55
2022-10-16T01:28:22.887Z,11.60
2022-10-16T01:30:55.457Z,11.58
2022-10-16T01:33:26.410Z,11.66
2022-10-16T01:35:57.012Z,11.73
2022-10-16T01:38:31.851Z,11.79
2022-10-16T01:41:03.522Z,11.73
2022-10-16T01:43:38.401Z,11.83
2022-10-16T01:46:07.681Z,11.95
2022-10-16T01:48:37.353Z,11.98
2022-10-16T01:51:09.282Z,11.99
2022-10-16T01:53:38.081Z,12.03
2022-10-16T01:56:09.728Z,12.11
2022-10-16T01:58:44.418Z,12.25
2022-10-16T02:04:09.554Z,12.21
2022-10-16T02:06:37.797Z,12.12
2022-10-16T02:09:06.040Z,12.11
2022-10-16T02:11:33.853Z,12.17
2022-10-16T02:14:07.096Z,12.07
2022-10-16T02:16:36.154Z,12.05
2022-10-16T02:19:04.818Z,12.00
2022-10-16T02:21:40.965Z,11.97
2022-10-16T02:24:16.666Z,11.98
2022-10-16T02:26:50.407Z,12.17
2022-10-16T02:29:25.812Z,12.10
2022-10-16T02:31:57.350Z,11.94
2022-10-16T02:34:27.871Z,11.77
2022-10-16T02:36:57.721Z,11.81
2022-10-16T02:39:26.240Z,11.80
2022-10-16T02:41:54.126Z,11.81
2022-10-16T02:44:23.503Z,11.83
2022-10-16T02:46:51.250Z,11.94
2022-10-16T02:49:19.644Z,11.71
2022-10-16T02:51:47.469Z,11.72
2022-10-16T02:54:15.354Z,11.70
2022-10-16T02:56:43.156Z,11.65
2022-10-16T02:59:11.169Z,11.63
2022-10-16T03:01:40.288Z,11.61
2022-10-16T03:04:08.344Z,11.68
2022-10-16T03:06:36.783Z,11.67
2022-10-16T03:09:04.809Z,11.54
2022-10-16T03:11:32.601Z,11.56
2022-10-16T03:14:00.482Z,11.50
2022-10-16T03:16:28.303Z,11.37
2022-10-16T03:18:57.615Z,11.30
2022-10-16T03:21:25.766Z,11.23
2022-10-16T03:23:53.814Z,11.18
2022-10-16T03:26:21.716Z,11.20
2022-10-16T03:28:49.689Z,11.17
2022-10-16T03:31:17.539Z,11.24
2022-10-16T03:33:45.712Z,11.18
2022-10-16T03:36:14.754Z,11.03
2022-10-16T03:38:43.151Z,11.07
2022-10-16T03:41:11.019Z,10.98
2022-10-16T03:43:38.874Z,10.93
2022-10-16T03:46:07.060Z,10.86
2022-10-16T03:48:35.450Z,10.91
2022-10-16T03:51:03.170Z,10.88
2022-10-16T03:53:32.437Z,10.95
2022-10-16T03:56:00.389Z,10.98
2022-10-16T03:58:28.249Z,11.01
2022-10-16T04:00:56.168Z,11.13
2022-10-16T04:03:24.525Z,11.16
2022-10-16T04:05:52.528Z,11.20
2022-10-16T04:08:20.605Z,11.29
2022-10-16T04:10:49.844Z,11.24
2022-10-16T04:13:17.764Z,11.18
2022-10-16T04:15:47.245Z,11.15
2022-10-16T04:18:15.310Z,11.14
2022-10-16T04:20:43.060Z,11.05
2022-10-16T04:23:10.989Z,11.00
2022-10-16T04:25:38.879Z,11.14
2022-10-16T04:28:08.129Z,11.05
2022-10-16T04:30:35.918Z,10.92
2022-10-16T04:33:03.959Z,10.92
2022-10-16T04:35:31.698Z,10.72
2022-10-16T04:37:59.597Z,10.67
2022-10-16T04:40:27.532Z,10.67
2022-10-16T04:42:55.465Z,10.85
2022-10-16T04:45:24.557Z,10.81
2022-10-16T04:47:52.593Z,10.71
2022-10-16T04:50:20.290Z,10.71
2022-10-16T04:52:48.306Z,10.66
2022-10-16T04:55:16.482Z,10.67
2022-10-16T04:57:44.391Z,10.56
2022-10-16T05:00:12.966Z,10.52
2022-10-16T05:02:42.363Z,10.67
2022-10-16T05:05:10.687Z,10.79
2022-10-16T05:07:38.564Z,10.68
2022-10-16T05:10:07.225Z,10.65
2022-10-16T05:12:35.165Z,10.61
2022-10-16T05:15:02.870Z,10.69
2022-10-16T05:17:30.902Z,10.60
2022-10-16T05:20:00.057Z,10.57
2022-10-16T05:22:28.118Z,10.60
2022-10-16T05:24:56.082Z,10.47
2022-10-16T05:27:24.309Z,10.50
2022-10-16T05:29:52.528Z,10.68
2022-10-16T05:32:20.986Z,10.85
2022-10-16T05:34:48.759Z,10.66
2022-10-16T05:37:18.277Z,10.91
2022-10-16T05:39:46.333Z,10.85
2022-10-16T05:42:14.222Z,10.91
2022-10-16T05:44:41.936Z,10.93
2022-10-16T05:47:09.962Z,10.90
2022-10-16T05:49:40.419Z,10.89
2022-10-16T05:52:09.708Z,10.98
2022-10-16T05:54:38.888Z,10.99
2022-10-16T05:57:07.546Z,11.01
2022-10-16T05:59:35.368Z,11.02
2022-10-16T06:02:03.394Z,11.01
2022-10-16T06:04:31.191Z,10.92
2022-10-16T06:07:01.202Z,10.89
2022-10-16T06:09:29.066Z,10.83
2022-10-16T06:11:58.494Z,10.87
2022-10-16T06:14:26.600Z,10.92
2022-10-16T06:16:54.590Z,10.95
2022-10-16T06:19:22.341Z,11.07
2022-10-16T06:21:50.296Z,11.19
2022-10-16T06:24:18.143Z,11.30
2022-10-16T06:26:46.057Z,11.36
2022-10-16T06:29:15.101Z,11.44
2022-10-16T06:31:43.269Z,11.62
2022-10-16T06:34:12.434Z,11.87
2022-10-16T06:36:41.008Z,11.95
2022-10-16T06:39:09.078Z,11.92
2022-10-16T06:41:37.520Z,11.97
2022-10-16T06:44:07.478Z,12.03
2022-10-16T06:46:36.949Z,12.00
2022-10-16T06:49:04.735Z,12.10
2022-10-16T06:51:37.868Z,12.13
2022-10-16T06:54:08.470Z,12.14
2022-10-16T06:56:36.649Z,12.24
2022-10-16T06:59:05.500Z,12.32
2022-10-16T07:01:34.622Z,12.32
2022-10-16T07:04:04.039Z,12.36
2022-10-16T07:06:34.438Z,12.39
2022-10-16T07:09:05.138Z,12.41
2022-10-16T07:11:33.381Z,12.44
2022-10-16T07:14:01.281Z,12.57
2022-10-16T07:16:30.949Z,12.79
2022-10-16T07:19:00.579Z,13.00
2022-10-16T07:21:36.150Z,13.08
2022-10-16T07:24:05.233Z,13.10
2022-10-16T07:26:36.889Z,13.20
2022-10-16T07:29:05.279Z,13.37
2022-10-16T07:31:34.135Z,13.54
2022-10-16T07:34:02.555Z,13.68
2022-10-16T07:36:31.839Z,13.90
2022-10-16T07:39:00.426Z,14.13
2022-10-16T07:41:29.130Z,14.34
2022-10-16T07:43:58.270Z,14.65
2022-10-16T07:46:26.361Z,14.76
2022-10-16T07:48:54.560Z,14.75
2022-10-16T07:51:24.135Z,14.86
2022-10-16T07:53:54.491Z,14.86
2022-10-16T07:56:23.813Z,14.89
2022-10-16T07:58:52.288Z,14.78
2022-10-16T08:01:21.084Z,14.65
2022-10-16T08:03:50.639Z,14.67
2022-10-16T08:06:23.519Z,14.73
2022-10-16T08:08:56.609Z,14.72
2022-10-16T08:11:25.049Z,14.75
2022-10-16T08:13:52.776Z,14.92
2022-10-16T08:16:21.234Z,15.04
2022-10-16T08:18:49.308Z,15.17
2022-10-16T08:21:21.224Z,15.28
2022-10-16T08:23:54.505Z,15.34
2022-10-16T08:26:27.342Z,15.45
2022-10-16T08:28:56.011Z,15.42
2022-10-16T08:31:24.680Z,15.54
2022-10-16T08:33:53.285Z,15.59
2022-10-16T08:36:21.365Z,15.78
2022-10-16T08:38:50.724Z,15.97
2022-10-16T08:41:38.164Z,16.13
2022-10-16T08:44:39.518Z,16.48
2022-10-16T08:47:15.117Z,16.72
2022-10-16T08:49:55.882Z,17.03
2022-10-16T08:52:26.107Z,17.34
2022-10-16T08:54:57.231Z,17.58
2022-10-16T08:57:27.904Z,17.74
2022-10-16T09:00:01.809Z,17.86
2022-10-16T09:02:36.955Z,18.04
2022-10-16T09:05:22.629Z,18.02
2022-10-16T09:10:40.550Z,17.94
2022-10-16T09:13:19.571Z,17.99
2022-10-16T09:15:57.790Z,17.96
2022-10-16T09:18:32.928Z,17.89
2022-10-16T09:21:07.429Z,17.67
2022-10-16T09:23:38.483Z,17.71
2022-10-16T09:26:11.311Z,17.83
2022-10-16T09:28:39.420Z,18.07
2022-10-16T09:31:15.394Z,18.23
2022-10-16T09:33:44.317Z,18.50
2022-10-16T09:36:14.118Z,18.79
2022-10-16T09:38:42.116Z,18.87
2022-10-16T09:41:18.584Z,19.20
2022-10-16T09:43:51.666Z,19.32
2022-10-16T09:46:28.208Z,19.75
2022-10-16T09:48:58.593Z,20.34
2022-10-16T09:51:29.101Z,20.54
2022-10-16T09:53:59.338Z,20.47
2022-10-16T09:56:29.431Z,20.48
2022-10-16T09:58:59.116Z,20.51
2022-10-16T10:01:33.277Z,20.61
2022-10-16T10:04:03.779Z,20.86
2022-10-16T10:06:34.677Z,21.12
2022-10-16T10:09:07.761Z,21.23
2022-10-16T10:11:54.905Z,21.59
2022-10-16T10:14:26.320Z,21.54
2022-10-16T10:17:12.989Z,21.86
2022-10-16T10:19:42.961Z,22.29
2022-10-16T10:22:24.910Z,22.81
2022-10-16T10:25:14.371Z,22.13
2022-10-16T10:27:54.421Z,22.12
2022-10-16T10:30:27.068Z,21.79
2022-10-16T10:33:11.662Z,21.79
2022-10-16T10:35:46.059Z,21.58
2022-10-16T10:38:29.286Z,21.56
2022-10-16T10:41:14.087Z,21.67
2022-10-16T10:43:57.869Z,21.82
2022-10-16T10:46:33.717Z,21.76
2022-10-16T10:49:17.715Z,21.63
2022-10-16T10:51:54.410Z,21.49
2022-10-16T10:54:30.752Z,21.36
2022-10-16T10:57:03.728Z,21.27
2022-10-16T10:59:59.198Z,21.01
2022-10-16T11:02:36.897Z,21.00
2022-10-16T11:05:37.562Z,20.80
2022-10-16T11:08:11.865Z,20.64
2022-10-16T11:10:47.783Z,20.57
2022-10-16T11:13:25.573Z,20.52
2022-10-16T11:15:57.550Z,20.41
2022-10-16T11:18:32.087Z,20.31
2022-10-16T11:21:06.253Z,20.22
2022-10-16T11:23:41.034Z,20.18
2022-10-16T11:26:15.082Z,20.15
2022-10-16T11:28:48.720Z,20.19
2022-10-16T11:31:23.981Z,20.19
2022-10-16T11:33:59.369Z,20.17
2022-10-16T11:36:35.241Z,19.92
2022-10-16T11:39:12.239Z,20.04
2022-10-16T11:41:46.494Z,19.96
2022-10-16T11:44:35.245Z,20.06
2022-10-16T11:47:54.064Z,19.89
2022-10-16T11:50:04.724Z,19.87
2022-10-16T11:52:41.282Z,19.83
2022-10-16T11:55:17.904Z,19.85
2022-10-16T11:57:49.517Z,19.76
2022-10-16T12:00:24.749Z,19.72
2022-10-16T12:03:02.338Z,19.72
2022-10-16T12:05:38.060Z,19.70
2022-10-16T12:08:12.510Z,19.72
2022-10-16T12:10:42.829Z,19.76
2022-10-16T12:13:31.770Z,19.80
2022-10-16T12:16:07.872Z,19.75
2022-10-16T12:18:35.906Z,19.78
2022-10-16T12:21:07.516Z,19.68
2022-10-16T12:23:40.259Z,19.71
2022-10-16T12:26:08.408Z,19.68
2022-10-16T12:28:37.220Z,19.41
2022-10-16T12:31:07.809Z,19.36
2022-10-16T12:33:37.338Z,19.46
2022-10-16T12:36:11.313Z,19.26
2022-10-16T12:38:48.447Z,19.35
2022-10-16T12:41:27.226Z,19.47
2022-10-16T12:43:55.364Z,19.55
2022-10-16T12:46:39.140Z,19.47
2022-10-16T12:49:22.181Z,19.50
2022-10-16T12:51:50.115Z,19.52
2022-10-16T12:54:22.297Z,19.59
2022-10-16T12:57:10.528Z,19.52
2022-10-16T12:59:48.689Z,19.43
2022-10-16T13:03:04.212Z,19.38
2022-10-16T13:05:48.242Z,19.40
2022-10-16T13:08:37.457Z,19.40
2022-10-16T13:11:15.644Z,19.37
2022-10-16T13:14:02.305Z,19.31
2022-10-16T13:16:43.098Z,19.24
2022-10-16T13:19:23.119Z,19.16
2022-10-16T13:22:00.750Z,19.26
2022-10-16T13:24:44.024Z,19.23
2022-10-16T13:27:26.195Z,19.17
2022-10-16T13:30:02.373Z,19.18
2022-10-16T13:32:30.967Z,19.18
2022-10-16T13:34:59.274Z,19.18
2022-10-16T13:37:29.002Z,19.19
2022-10-16T13:40:09.644Z,19.31
2022-10-16T13:42:38.934Z,19.30
2022-10-16T13:45:08.056Z,19.37
2022-10-16T13:47:35.751Z,19.31
2022-10-16T13:50:05.585Z,19.24
2022-10-16T13:52:34.292Z,19.28
2022-10-16T13:55:02.680Z,19.22
2022-10-16T13:57:30.878Z,19.19
2022-10-16T14:00:00.221Z,19.19
2022-10-16T14:02:33.261Z,19.15
2022-10-16T14:05:01.376Z,19.19
2022-10-16T14:07:32.078Z,19.08
2022-10-16T14:10:03.729Z,19.06
2022-10-16T14:12:32.470Z,18.96
2022-10-16T14:15:02.884Z,18.95
2022-10-16T14:17:34.716Z,18.98
2022-10-16T14:20:07.075Z,18.94
2022-10-16T14:22:38.305Z,19.01
2022-10-16T14:25:31.132Z,18.92
2022-10-16T14:30:33.040Z,18.89
2022-10-16T14:33:02.406Z,18.92
2022-10-16T14:35:33.008Z,18.87
2022-10-16T14:38:02.900Z,18.94
2022-10-16T14:40:33.915Z,18.96
2022-10-16T14:43:03.268Z,19.17
2022-10-16T14:45:35.585Z,19.10
2022-10-16T14:48:18.791Z,19.22
2022-10-16T14:50:48.884Z,19.29
2022-10-16T14:53:16.891Z,19.34
2022-10-16T14:55:45.375Z,19.12
2022-10-16T14:58:17.180Z,18.96
2022-10-16T15:00:46.372Z,18.74
2022-10-16T15:03:14.619Z,18.84
2022-10-16T15:05:42.644Z,18.90
2022-10-16T15:08:10.366Z,18.97
2022-10-16T15:10:41.568Z,18.96
2022-10-16T15:13:13.592Z,19.00
2022-10-16T15:15:46.769Z,18.98
2022-10-16T15:18:15.846Z,19.01
2022-10-16T15:20:44.252Z,18.91
2022-10-16T15:23:16.809Z,18.85
2022-10-16T15:25:47.285Z,18.76
2022-10-16T15:28:17.206Z,18.63
2022-10-16T15:30:47.873Z,18.57
2022-10-16T15:33:19.113Z,18.42
2022-10-16T15:35:49.690Z,18.37
2022-10-16T15:38:18.165Z,18.22
2022-10-16T15:40:49.708Z,18.12
2022-10-16T15:43:17.670Z,18.05
2022-10-16T15:46:00.020Z,18.04
2022-10-16T15:48:27.873Z,17.94
2022-10-16T15:50:55.869Z,17.90
2022-10-16T15:53:23.757Z,17.79
2022-10-16T15:55:51.993Z,17.75
2022-10-16T15:58:19.804Z,17.56
2022-10-16T16:00:56.445Z,17.37
2022-10-16T16:03:24.454Z,17.22
2022-10-16T16:05:52.379Z,17.15
2022-10-16T16:08:20.950Z,17.07
2022-10-16T16:10:59.674Z,17.09
2022-10-16T16:13:27.554Z,17.09
2022-10-16T16:15:57.258Z,16.96
2022-10-16T16:18:25.984Z,16.97
2022-10-16T16:20:54.283Z,16.86
2022-10-16T16:23:23.096Z,16.70
2022-10-16T16:26:06.200Z,16.72
2022-10-16T16:28:34.371Z,16.59
2022-10-16T16:31:04.059Z,16.50
2022-10-16T16:33:33.019Z,16.49
2022-10-16T16:36:02.616Z,16.51
2022-10-16T16:38:30.756Z,16.56
2022-10-16T16:40:58.833Z,16.40
2022-10-16T16:43:27.091Z,16.30
2022-10-16T16:45:55.831Z,16.29
2022-10-16T16:48:24.926Z,16.24
2022-10-16T16:50:52.929Z,16.18
2022-10-16T16:53:20.675Z,16.05
2022-10-16T16:55:48.610Z,16.10
2022-10-16T16:58:16.504Z,16.17
2022-10-16T17:00:56.530Z,16.14
2022-10-16T17:03:26.173Z,15.92
2022-10-16T17:05:57.922Z,15.91
2022-10-16T17:08:25.604Z,15.83
2022-10-16T17:10:55.929Z,15.87
2022-10-16T17:13:25.102Z,15.76
2022-10-16T17:15:54.033Z,15.77
2022-10-16T17:18:23.257Z,15.59
2022-10-16T17:20:52.726Z,15.45
2022-10-16T17:23:21.349Z,15.46
2022-10-16T17:25:49.346Z,15.18
2022-10-16T17:28:17.291Z,15.04
2022-10-16T17:30:45.446Z,14.99
2022-10-16T17:33:14.649Z,15.03
2022-10-16T17:35:44.455Z,15.15
2022-10-16T17:38:16.683Z,15.09
2022-10-16T17:40:44.783Z,15.13
2022-10-16T17:43:12.469Z,14.93
2022-10-16T17:45:40.545Z,14.80
2022-10-16T17:48:08.483Z,14.75
2022-10-16T17:50:40.983Z,14.80
2022-10-16T17:53:08.865Z,14.81
2022-10-16T17:55:40.370Z,14.85
2022-10-16T17:58:08.468Z,14.82
2022-10-16T18:00:36.566Z,14.78
2022-10-16T18:03:04.922Z,14.77
2022-10-16T18:05:32.834Z,14.84
2022-10-16T18:08:00.676Z,14.88
2022-10-16T18:10:28.776Z,14.98
2022-10-16T18:12:57.826Z,14.99
2022-10-16T18:15:25.894Z,14.98
2022-10-16T18:17:54.867Z,15.03
2022-10-16T18:20:23.110Z,15.05
2022-10-16T18:22:50.953Z,15.01
2022-10-16T18:25:18.950Z,14.93
2022-10-16T18:27:46.708Z,14.92
2022-10-16T18:30:16.307Z,14.89
2022-10-16T18:32:44.262Z,14.92
2022-10-16T18:37:40.945Z,14.91
2022-10-16T18:40:09.386Z,14.71
2022-10-16T18:42:37.120Z,14.55
2022-10-16T18:45:05.573Z,14.56
2022-10-16T18:47:34.868Z,14.49
2022-10-16T18:50:02.775Z,14.43
2022-10-16T18:52:32.236Z,14.42
2022-10-16T18:55:00.522Z,14.41
2022-10-16T18:57:30.063Z,14.35
2022-10-16T18:59:58.614Z,14.41
2022-10-16T19:02:26.617Z,14.45
2022-10-16T19:04:55.910Z,14.45
2022-10-16T19:07:23.667Z,14.42
2022-10-16T19:09:51.746Z,14.41
2022-10-16T19:12:19.517Z,14.41
2022-10-16T19:14:48.964Z,14.41
2022-10-16T19:17:16.826Z,14.39
2022-10-16T19:19:44.746Z,14.38
2022-10-16T19:22:27.883Z,14.38
2022-10-16T19:24:56.423Z,14.41
2022-10-16T19:27:24.406Z,14.41
2022-10-16T19:29:52.306Z,14.44
2022-10-16T19:32:20.132Z,14.40
2022-10-16T19:34:51.097Z,14.35
2022-10-16T19:37:25.669Z,14.40
2022-10-16T19:39:54.235Z,14.44
2022-10-16T19:42:22.093Z,14.42
2022-10-16T19:44:50.794Z,14.44
2022-10-16T19:47:20.884Z,14.45
2022-10-16T19:49:52.524Z,14.28
2022-10-16T19:52:23.051Z,14.20
2022-10-16T19:54:50.994Z,14.11
2022-10-16T19:57:18.914Z,14.03
2022-10-16T19:59:47.273Z,13.90
2022-10-16T20:02:15.036Z,13.79
2022-10-16T20:04:43.115Z,13.61
2022-10-16T20:07:11.126Z,13.40
2022-10-16T20:09:40.442Z,13.28
2022-10-16T20:12:08.158Z,13.40
2022-10-16T20:14:36.414Z,13.47
2022-10-16T20:17:04.290Z,13.62
2022-10-16T20:19:32.497Z,13.64
2022-10-16T20:22:00.447Z,13.74
2022-10-16T20:24:28.572Z,13.64
2022-10-16T20:26:58.812Z,13.81
2022-10-16T20:29:26.916Z,13.91
2022-10-16T20:31:54.677Z,14.10
2022-10-16T20:34:22.618Z,13.97
2022-10-16T20:36:50.777Z,13.87
2022-10-16T20:39:18.657Z,13.88
2022-10-16T20:41:46.377Z,13.95
2022-10-16T20:44:15.787Z,13.81
2022-10-16T20:46:43.487Z,13.72
2022-10-16T20:49:27.882Z,13.65
2022-10-16T20:51:56.866Z,13.69
2022-10-16T20:54:24.818Z,13.68
2022-10-16T20:56:52.986Z,13.70
2022-10-16T20:59:22.599Z,13.61
2022-10-16T21:01:50.386Z,13.59
2022-10-16T21:04:18.321Z,13.64
2022-10-16T21:06:46.167Z,13.71
2022-10-16T21:09:14.089Z,13.75
2022-10-16T21:11:41.782Z,13.76
2022-10-16T21:14:10.173Z,13.89
2022-10-16T21:16:39.260Z,13.88
2022-10-16T21:19:07.349Z,13.84
2022-10-16T21:21:38.125Z,13.89
2022-10-16T21:24:07.829Z,13.90
2022-10-16T21:26:37.614Z,14.01
2022-10-16T21:29:07.732Z,14.07
2022-10-16T21:31:36.118Z,14.02
2022-10-16T21:34:05.951Z,14.00
2022-10-16T21:36:36.613Z,13.96
2022-10-16T21:39:06.633Z,13.91
2022-10-16T21:41:35.641Z,13.79
2022-10-16T21:44:04.730Z,13.84
2022-10-16T21:46:34.450Z,13.80
2022-10-16T21:49:05.957Z,13.74
2022-10-16T21:51:36.838Z,13.76
2022-10-16T21:54:07.018Z,13.74
2022-10-16T21:56:35.467Z,13.70
2022-10-16T21:59:03.589Z,13.64
2022-10-16T22:01:31.829Z,13.57
2022-10-16T22:04:00.659Z,13.51
2022-10-16T22:06:30.099Z,13.55
2022-10-16T22:09:00.363Z,13.50
2022-10-16T22:11:31.241Z,13.52
2022-10-16T22:13:59.402Z,13.44
2022-10-16T22:16:27.696Z,13.48
2022-10-16T22:18:57.305Z,13.63
2022-10-16T22:21:25.819Z,13.53
2022-10-16T22:23:55.119Z,13.39
2022-10-16T22:26:22.919Z,13.40
2022-10-16T22:28:51.431Z,13.26
2022-10-16T22:31:19.290Z,13.25
2022-10-16T22:33:47.322Z,13.22
2022-10-16T22:36:16.061Z,13.08
2022-10-16T22:38:43.922Z,13.11
2022-10-16T22:41:14.641Z,13.13
2022-10-16T22:43:44.393Z,13.05
2022-10-16T22:46:15.211Z,13.02
2022-10-16T22:48:43.826Z,13.02
2022-10-16T22:51:16.651Z,12.88
2022-10-16T22:53:46.504Z,12.78
2022-10-16T22:56:17.104Z,12.63
2022-10-16T22:58:45.332Z,12.62
2022-10-16T23:01:15.715Z,12.58
2022-10-16T23:03:43.666Z,12.52
2022-10-16T23:06:11.433Z,12.51
2022-10-16T23:08:39.505Z,12.46
2022-10-16T23:11:09.196Z,12.45
2022-10-16T23:13:39.559Z,12.46
2022-10-16T23:16:08.507Z,12.47
2022-10-16T23:18:36.422Z,12.53
2022-10-16T23:21:06.335Z,12.47
2022-10-16T23:23:35.970Z,12.44
2022-10-16T23:26:03.877Z,12.47
2022-10-16T23:28:32.231Z,12.36
2022-10-16T23:31:01.810Z,12.28
2022-10-16T23:33:29.721Z,12.18
2022-10-16T23:35:57.404Z,12.20
2022-10-16T23:38:25.588Z,12.17
2022-10-16T23:40:53.341Z,12.11
2022-10-16T23:43:21.238Z,12.12
2022-10-16T23:45:49.139Z,12.20
2022-10-16T23:48:18.349Z,12.16
2022-10-16T23:50:46.112Z,12.14
2022-10-16T23:53:14.325Z,12.25
2022-10-16T23:55:41.999Z,12.27
2022-10-16T23:58:09.980Z,12.24
